Time;durP1;ratioP1;P1;durP2;ratioP2;P2;SDS_P1;SDS_P2;PMS_P1;PMS_P2;Temp;Humidity;BMP_temperature;BMP_pressure;BME280_temperature;BME280_humidity;BME280_pressure;Samples;Min_cycle;Max_cycle;Signal;HPM_P1;HPM_P2
2020/12/05 00:00:36;;;;;;;33.72;11.40;;;4.10;99.90;;;;;;4961929;28;20418;-65
2020/12/05 00:03:02;;;;;;;35.85;12.57;;;4.10;99.90;;;;;;4960659;28;20050;-65
2020/12/05 00:05:29;;;;;;;31.85;12.27;;;4.00;99.90;;;;;;4982246;28;20071;-65
2020/12/05 00:07:56;;;;;;;32.25;10.57;;;4.00;99.90;;;;;;4975425;28;20053;-65
2020/12/05 00:10:23;;;;;;;36.30;12.38;;;4.00;99.90;;;;;;4968675;28;20038;-65
2020/12/05 00:12:50;;;;;;;32.25;11.43;;;3.90;99.90;;;;;;4976106;28;20053;-66
2020/12/05 00:15:16;;;;;;;35.67;12.05;;;3.90;99.90;;;;;;4969220;28;20046;-66
2020/12/05 00:17:43;;;;;;;36.13;12.55;;;3.90;99.90;;;;;;4972002;28;20049;-66
2020/12/05 00:20:09;;;;;;;33.75;10.95;;;3.90;99.90;;;;;;4964858;28;20529;-66
2020/12/05 00:22:37;;;;;;;34.38;11.73;;;3.90;99.90;;;;;;4974541;28;20368;-66
2020/12/05 00:25:04;;;;;;;30.00;11.00;;;3.90;99.90;;;;;;4973874;28;20078;-66
2020/12/05 00:27:30;;;;;;;30.50;11.25;;;3.90;99.90;;;;;;4976581;28;20503;-66
2020/12/05 00:29:57;;;;;;;29.85;11.55;;;3.80;99.90;;;;;;4969607;28;20046;-66
2020/12/05 00:32:27;;;;;;;33.47;12.20;;;3.80;99.90;;;;;;4954711;28;20062;-66
2020/12/05 00:34:55;;;;;;;38.83;12.88;;;3.80;99.90;;;;;;4960549;28;20129;-66
2020/12/05 00:37:22;;;;;;;41.80;12.43;;;3.80;99.90;;;;;;4960785;28;20586;-66
2020/12/05 00:39:48;;;;;;;31.45;12.40;;;3.80;99.90;;;;;;4959398;28;20043;-66
2020/12/05 00:42:15;;;;;;;34.55;11.73;;;3.80;99.90;;;;;;4963832;28;20046;-66
2020/12/05 00:44:41;;;;;;;32.60;11.90;;;3.80;99.90;;;;;;4965244;28;20538;-66
2020/12/05 00:47:08;;;;;;;35.90;12.55;;;3.80;99.90;;;;;;4970561;28;20418;-66
2020/12/05 00:49:34;;;;;;;32.90;12.75;;;3.80;99.90;;;;;;4977840;28;20094;-66
2020/12/05 00:52:01;;;;;;;38.60;12.00;;;3.80;99.90;;;;;;4952827;28;20054;-66
2020/12/05 00:54:28;;;;;;;35.13;11.95;;;3.70;99.90;;;;;;4967818;28;20078;-66
2020/12/05 00:56:56;;;;;;;33.58;11.13;;;3.70;99.90;;;;;;4968281;28;20137;-66
2020/12/05 00:59:22;;;;;;;34.40;11.13;;;3.70;99.90;;;;;;4971748;28;20062;-66
2020/12/05 01:01:53;;;;;;;31.50;11.20;;;3.70;99.90;;;;;;4967403;28;20047;-66
2020/12/05 01:04:21;;;;;;;33.10;10.15;;;3.70;99.90;;;;;;4974962;28;20046;-66
2020/12/05 01:06:48;;;;;;;33.42;11.88;;;3.70;99.90;;;;;;4965971;28;20414;-66
2020/12/05 01:09:15;;;;;;;36.70;10.48;;;3.70;99.90;;;;;;4960523;28;20038;-66
2020/12/05 01:11:47;;;;;;;25.63;11.15;;;3.70;99.90;;;;;;4976769;28;20081;-66
2020/12/05 01:14:14;;;;;;;31.55;11.35;;;3.70;99.90;;;;;;4971027;28;20760;-66
2020/12/05 01:16:43;;;;;;;37.85;12.07;;;3.70;99.90;;;;;;4966298;28;20130;-66
2020/12/05 01:19:10;;;;;;;33.97;10.55;;;3.60;99.90;;;;;;4985392;28;20441;-66
2020/12/05 01:21:37;;;;;;;33.05;10.88;;;3.60;99.90;;;;;;4959050;28;20054;-66
2020/12/05 01:24:04;;;;;;;36.65;12.63;;;3.60;99.90;;;;;;4963253;28;20053;-66
2020/12/05 01:26:30;;;;;;;27.02;9.73;;;3.60;99.90;;;;;;4960536;28;20061;-66
2020/12/05 01:28:57;;;;;;;31.98;11.15;;;3.70;99.90;;;;;;4965137;28;20054;-66
2020/12/05 01:31:23;;;;;;;40.55;11.38;;;3.70;99.90;;;;;;4974500;28;20036;-66
2020/12/05 01:33:50;;;;;;;35.97;11.57;;;3.70;99.90;;;;;;4959346;28;20039;-66
2020/12/05 01:36:16;;;;;;;34.58;12.05;;;3.60;99.90;;;;;;4958866;28;20506;-66
2020/12/05 01:38:43;;;;;;;30.40;10.93;;;3.70;99.90;;;;;;4973177;28;20043;-66
2020/12/05 01:41:09;;;;;;;33.80;10.80;;;3.70;99.90;;;;;;4975605;28;20059;-66
2020/12/05 01:43:40;;;;;;;31.70;11.10;;;3.70;99.90;;;;;;4976122;28;20678;-66
2020/12/05 01:46:13;;;;;;;32.42;11.30;;;3.70;99.90;;;;;;4990713;28;20051;-66
2020/12/05 01:48:39;;;;;;;28.33;10.43;;;3.70;99.90;;;;;;4964499;28;20043;-66
2020/12/05 01:51:06;;;;;;;30.65;11.30;;;3.70;99.90;;;;;;4979374;28;20047;-66
2020/12/05 01:53:34;;;;;;;30.90;10.90;;;3.70;99.90;;;;;;4970116;28;20106;-66
2020/12/05 01:56:00;;;;;;;31.00;10.15;;;3.70;99.90;;;;;;4962600;28;20043;-66
2020/12/05 01:58:27;;;;;;;40.63;11.50;;;3.70;99.90;;;;;;4973469;28;20050;-66
2020/12/05 02:00:54;;;;;;;35.72;11.00;;;3.70;99.90;;;;;;4974210;28;20051;-66
2020/12/05 02:03:20;;;;;;;29.85;10.23;;;3.70;99.90;;;;;;4966994;28;20053;-66
2020/12/05 02:05:55;;;;;;;34.53;10.73;;;3.80;99.90;;;;;;4985317;28;20050;-66
2020/12/05 02:08:56;;;;;;;33.83;10.98;;;3.80;99.90;;;;;;4966672;28;20061;-66
2020/12/05 02:11:27;;;;;;;35.63;10.20;;;3.80;99.90;;;;;;4995038;28;20045;-66
2020/12/05 02:13:59;;;;;;;31.02;10.55;;;3.80;99.90;;;;;;4992830;28;20527;-66
2020/12/05 02:16:26;;;;;;;32.85;10.13;;;3.80;99.90;;;;;;5018421;28;20048;-66
2020/12/05 02:18:54;;;;;;;29.92;10.15;;;3.80;99.90;;;;;;5013984;28;20447;-66
2020/12/05 02:21:26;;;;;;;31.00;10.65;;;3.90;99.90;;;;;;5018700;28;20054;-66
2020/12/05 02:23:55;;;;;;;32.72;10.95;;;3.90;99.90;;;;;;5013316;28;20057;-66
2020/12/05 02:26:22;;;;;;;34.58;10.55;;;3.90;99.90;;;;;;5012667;28;20455;-66
2020/12/05 02:28:49;;;;;;;34.30;11.73;;;3.90;99.90;;;;;;4999470;28;20056;-66
2020/12/05 02:31:16;;;;;;;36.65;10.48;;;3.90;99.90;;;;;;5011604;28;20042;-66
2020/12/05 02:33:43;;;;;;;29.45;10.02;;;3.90;99.90;;;;;;5009569;28;20037;-66
2020/12/05 02:36:11;;;;;;;31.77;9.77;;;3.90;99.90;;;;;;5019819;28;20053;-66
2020/12/05 02:39:08;;;;;;;35.65;10.50;;;3.90;99.90;;;;;;5015568;28;20042;-66
2020/12/05 02:41:39;;;;;;;27.88;10.05;;;3.90;99.90;;;;;;5015986;28;20139;-66
2020/12/05 02:44:06;;;;;;;34.65;10.32;;;3.90;99.90;;;;;;5016544;28;20054;-66
2020/12/05 02:46:33;;;;;;;33.38;9.20;;;3.90;99.90;;;;;;5017732;28;20049;-66
2020/12/05 02:49:00;;;;;;;36.63;10.88;;;3.90;99.90;;;;;;4981514;28;20494;-66
2020/12/05 02:51:27;;;;;;;32.65;11.85;;;3.90;99.90;;;;;;4958867;28;20044;-66
2020/12/05 02:53:56;;;;;;;31.85;11.00;;;3.90;99.90;;;;;;4968812;28;20045;-66
2020/12/05 02:56:24;;;;;;;37.25;10.85;;;3.90;99.90;;;;;;4981534;28;20045;-66
2020/12/05 02:58:50;;;;;;;28.50;10.52;;;3.90;99.90;;;;;;4964727;28;20545;-66
2020/12/05 03:01:17;;;;;;;29.98;10.50;;;3.80;99.90;;;;;;4999839;28;20054;-66
2020/12/05 03:03:43;;;;;;;29.02;9.95;;;3.80;99.90;;;;;;4975907;28;20537;-66
2020/12/05 03:06:10;;;;;;;32.50;10.63;;;3.80;99.90;;;;;;4966030;28;20105;-66
2020/12/05 03:08:36;;;;;;;30.65;11.27;;;3.70;99.90;;;;;;4981436;28;20050;-66
2020/12/05 03:11:06;;;;;;;32.33;11.73;;;3.70;99.90;;;;;;4963184;28;20063;-66
2020/12/05 03:13:33;;;;;;;34.33;11.50;;;3.70;99.90;;;;;;4970825;28;20058;-66
2020/12/05 03:15:59;;;;;;;30.85;10.43;;;3.70;99.90;;;;;;4987157;28;20045;-66
2020/12/05 03:18:26;;;;;;;34.55;11.63;;;3.70;99.90;;;;;;4980388;28;20101;-66
2020/12/05 03:20:53;;;;;;;27.05;10.88;;;3.60;99.90;;;;;;4978831;28;20495;-66
2020/12/05 03:23:19;;;;;;;31.92;9.73;;;3.60;99.90;;;;;;4965555;28;20501;-66
2020/12/05 03:25:46;;;;;;;29.83;10.57;;;3.60;99.90;;;;;;4972052;28;20126;-66
2020/12/05 03:28:12;;;;;;;35.70;12.25;;;3.60;99.90;;;;;;4992172;28;20043;-66
2020/12/05 03:30:39;;;;;;;34.58;11.35;;;3.50;99.90;;;;;;5005102;28;20093;-66
2020/12/05 03:33:07;;;;;;;32.30;9.45;;;3.60;99.90;;;;;;4972031;28;20049;-66
2020/12/05 03:35:34;;;;;;;29.80;10.55;;;3.60;99.90;;;;;;4970673;28;20058;-66
2020/12/05 03:38:00;;;;;;;35.85;12.00;;;3.60;99.90;;;;;;4958564;28;20055;-66
2020/12/05 03:40:27;;;;;;;27.65;10.40;;;3.50;99.90;;;;;;4990100;28;20511;-66
2020/12/05 03:42:54;;;;;;;30.60;12.10;;;3.50;99.90;;;;;;4956135;28;20098;-66
2020/12/05 03:45:20;;;;;;;31.75;10.43;;;3.50;99.90;;;;;;4962672;28;20057;-66
2020/12/05 03:47:47;;;;;;;34.25;11.93;;;3.50;99.90;;;;;;4968976;28;20078;-66
2020/12/05 03:50:13;;;;;;;30.20;10.07;;;3.50;99.90;;;;;;4974329;28;20042;-66
2020/12/05 03:52:40;;;;;;;33.83;11.60;;;3.50;99.90;;;;;;4962184;28;20044;-66
2020/12/05 03:55:08;;;;;;;28.55;11.43;;;3.50;99.90;;;;;;4961319;28;20451;-66
2020/12/05 03:57:35;;;;;;;39.65;13.30;;;3.50;99.90;;;;;;4972388;28;20054;-66
2020/12/05 04:00:01;;;;;;;33.08;11.32;;;3.50;99.90;;;;;;4974750;28;20043;-65
2020/12/05 04:02:30;;;;;;;31.48;11.07;;;3.40;99.90;;;;;;4960756;28;20053;-65
2020/12/05 04:04:56;;;;;;;33.75;12.50;;;3.40;99.90;;;;;;4972956;28;20042;-65
2020/12/05 04:07:23;;;;;;;32.65;11.93;;;3.40;99.90;;;;;;4976695;28;20034;-65
2020/12/05 04:09:49;;;;;;;32.20;11.45;;;3.30;99.90;;;;;;4979221;28;20042;-65
2020/12/05 04:12:16;;;;;;;33.47;11.57;;;3.30;99.90;;;;;;4981811;28;20039;-65
2020/12/05 04:14:43;;;;;;;31.52;11.65;;;3.30;99.90;;;;;;4973506;28;20043;-66
2020/12/05 04:17:09;;;;;;;31.13;12.57;;;3.30;99.90;;;;;;4976676;28;20406;-66
2020/12/05 04:19:36;;;;;;;33.92;12.45;;;3.30;99.90;;;;;;4970121;28;20523;-66
2020/12/05 04:22:03;;;;;;;30.23;11.20;;;3.20;99.90;;;;;;4960623;28;20046;-66
2020/12/05 04:24:29;;;;;;;30.02;11.38;;;3.20;99.90;;;;;;4975561;28;20101;-66
2020/12/05 04:26:56;;;;;;;35.92;12.68;;;3.20;99.90;;;;;;4961536;28;20047;-65
2020/12/05 04:29:23;;;;;;;34.13;12.20;;;3.20;99.90;;;;;;4966911;28;20094;-65
2020/12/05 04:31:49;;;;;;;33.70;11.43;;;3.20;99.90;;;;;;4965760;28;20038;-65
2020/12/05 04:34:16;;;;;;;31.45;12.10;;;3.20;99.90;;;;;;4958004;28;20046;-65
2020/12/05 04:36:42;;;;;;;33.03;10.38;;;3.20;99.90;;;;;;4979143;28;20518;-66
2020/12/05 04:39:09;;;;;;;33.40;11.95;;;3.20;99.90;;;;;;4962653;28;20076;-66
2020/12/05 04:41:35;;;;;;;31.23;11.27;;;3.20;99.90;;;;;;4966315;28;20047;-66
2020/12/05 04:44:02;;;;;;;33.70;10.57;;;3.20;99.90;;;;;;4979574;28;20043;-66
2020/12/05 04:46:31;;;;;;;29.50;11.07;;;3.20;99.90;;;;;;4961417;28;20060;-66
2020/12/05 04:49:00;;;;;;;33.90;12.77;;;3.10;99.90;;;;;;4980703;28;20544;-66
2020/12/05 04:51:30;;;;;;;36.55;12.50;;;3.10;99.90;;;;;;4965927;28;20031;-66
2020/12/05 04:53:59;;;;;;;35.65;13.13;;;3.10;99.90;;;;;;4968438;28;20069;-66
2020/12/05 04:56:35;;;;;;;43.00;11.93;;;3.10;99.90;;;;;;4962392;28;20038;-66
2020/12/05 04:59:07;;;;;;;35.67;12.18;;;3.10;99.90;;;;;;4966965;28;20058;-66
2020/12/05 05:01:38;;;;;;;34.42;12.25;;;3.00;99.90;;;;;;4982434;28;20069;-66
2020/12/05 05:04:06;;;;;;;34.22;11.40;;;3.00;99.90;;;;;;4967658;28;20034;-66
2020/12/05 05:06:32;;;;;;;33.15;11.35;;;3.00;99.90;;;;;;4970517;28;20477;-66
2020/12/05 05:08:59;;;;;;;34.22;12.00;;;3.10;99.90;;;;;;4972804;28;20047;-66
2020/12/05 05:11:28;;;;;;;31.55;11.30;;;3.10;99.90;;;;;;4966846;28;20039;-66
2020/12/05 05:14:02;;;;;;;29.35;10.93;;;3.10;99.90;;;;;;4972420;28;20043;-66
2020/12/05 05:16:29;;;;;;;36.95;12.88;;;3.10;99.90;;;;;;4962382;28;20055;-66
2020/12/05 05:19:16;;;;;;;33.08;11.73;;;3.10;99.90;;;;;;4967483;28;20125;-66
2020/12/05 05:21:43;;;;;;;37.80;11.80;;;3.10;99.90;;;;;;4970345;28;20065;-66
2020/12/05 05:24:14;;;;;;;35.83;12.73;;;3.20;99.90;;;;;;4965860;28;20096;-66
2020/12/05 05:26:43;;;;;;;33.65;11.95;;;3.20;99.90;;;;;;4959435;28;20125;-66
2020/12/05 05:29:28;;;;;;;37.05;12.50;;;3.20;99.90;;;;;;4972569;28;20027;-66
2020/12/05 05:32:09;;;;;;;37.72;13.07;;;3.20;99.90;;;;;;4980502;28;20055;-65
2020/12/05 05:34:36;;;;;;;35.80;12.07;;;3.20;99.90;;;;;;4986799;28;20441;-65
2020/12/05 05:37:13;;;;;;;34.28;11.40;;;3.20;99.90;;;;;;4960082;28;20125;-65
2020/12/05 05:39:53;;;;;;;32.25;11.60;;;3.30;99.90;;;;;;4979949;28;20119;-65
2020/12/05 05:42:28;;;;;;;27.35;11.15;;;3.30;99.90;;;;;;4960707;28;20047;-65
2020/12/05 05:45:18;;;;;;;28.52;10.48;;;3.30;99.90;;;;;;4978596;28;20054;-65
2020/12/05 05:47:45;;;;;;;32.70;11.13;;;3.30;99.90;;;;;;4969500;28;20528;-65
2020/12/05 05:50:38;;;;;;;32.42;11.55;;;3.40;99.90;;;;;;4971913;28;20402;-65
2020/12/05 05:53:10;;;;;;;32.53;10.73;;;3.30;99.90;;;;;;4973560;28;20114;-65
2020/12/05 05:55:46;;;;;;;32.67;11.10;;;3.40;99.90;;;;;;4983873;28;20049;-65
2020/12/05 05:58:18;;;;;;;33.38;11.38;;;3.40;99.90;;;;;;4969828;28;20069;-65
2020/12/05 06:00:47;;;;;;;31.17;9.63;;;3.40;99.90;;;;;;4964444;28;20046;-65
2020/12/05 06:03:25;;;;;;;32.72;12.68;;;3.40;99.90;;;;;;4961223;28;20288;-65
2020/12/05 06:05:58;;;;;;;40.50;12.82;;;3.40;99.90;;;;;;4976009;28;20066;-65
2020/12/05 06:08:29;;;;;;;35.03;13.43;;;3.40;99.90;;;;;;4965244;28;20046;-64
2020/12/05 06:11:09;;;;;;;38.42;13.25;;;3.40;99.90;;;;;;4976852;28;20402;-64
2020/12/05 06:13:36;;;;;;;38.53;12.60;;;3.40;99.90;;;;;;4974984;28;20058;-64
2020/12/05 06:16:04;;;;;;;36.13;12.15;;;3.40;99.90;;;;;;4977957;28;20721;-64
2020/12/05 06:18:31;;;;;;;28.02;11.48;;;3.40;99.90;;;;;;4966147;28;20047;-64
2020/12/05 06:20:58;;;;;;;31.35;11.73;;;3.40;99.90;;;;;;4978932;28;20110;-64
2020/12/05 06:23:39;;;;;;;32.63;12.45;;;3.40;99.90;;;;;;4977145;28;20042;-65
2020/12/05 06:26:11;;;;;;;34.97;12.25;;;3.40;99.90;;;;;;4976961;28;20059;-64
2020/12/05 06:28:39;;;;;;;36.03;11.65;;;3.40;99.90;;;;;;4977464;28;20055;-64
2020/12/05 06:31:06;;;;;;;36.92;11.73;;;3.40;99.90;;;;;;4969200;28;20039;-64
2020/12/05 06:33:41;;;;;;;32.47;11.55;;;3.40;99.90;;;;;;4969318;28;20031;-64
2020/12/05 06:36:27;;;;;;;33.30;11.40;;;3.50;99.90;;;;;;4977769;28;20398;-64
2020/12/05 06:39:06;;;;;;;35.15;12.65;;;3.50;99.90;;;;;;4961504;28;20436;-64
2020/12/05 06:41:38;;;;;;;35.67;11.10;;;3.50;99.90;;;;;;4978232;28;20075;-64
2020/12/05 06:44:33;;;;;;;30.67;13.10;;;3.50;99.90;;;;;;4959564;28;20039;-64
2020/12/05 06:47:10;;;;;;;34.83;13.00;;;3.50;99.90;;;;;;4963474;28;20038;-64
2020/12/05 06:49:36;;;;;;;32.67;12.35;;;3.60;99.90;;;;;;4964034;28;20110;-64
2020/12/05 06:52:25;;;;;;;38.42;12.52;;;3.60;99.90;;;;;;4978506;28;20046;-64
2020/12/05 06:54:53;;;;;;;31.67;12.23;;;3.70;99.90;;;;;;4981539;28;20122;-65
2020/12/05 06:57:22;;;;;;;33.50;11.43;;;3.80;99.90;;;;;;4967934;28;20082;-65
2020/12/05 06:59:50;;;;;;;33.22;12.05;;;3.90;99.90;;;;;;4972626;28;20050;-65
2020/12/05 07:02:30;;;;;;;35.83;12.05;;;3.90;99.90;;;;;;4966847;28;20050;-65
2020/12/05 07:05:18;;;;;;;32.63;11.45;;;4.10;99.90;;;;;;4966469;28;20043;-63
2020/12/05 07:07:50;;;;;;;36.47;12.43;;;4.10;99.90;;;;;;4973723;28;20659;-63
2020/12/05 07:10:17;;;;;;;33.33;12.13;;;4.20;99.90;;;;;;4993153;28;20035;-63
2020/12/05 07:12:44;;;;;;;31.77;13.45;;;4.30;99.90;;;;;;4972200;28;20097;-63
2020/12/05 07:15:28;;;;;;;32.88;12.25;;;4.40;99.90;;;;;;4974698;28;20074;-63
2020/12/05 07:17:58;;;;;;;34.63;12.60;;;4.50;99.90;;;;;;4969200;28;20046;-63
2020/12/05 07:20:25;;;;;;;34.72;12.98;;;4.70;99.90;;;;;;4972520;28;20039;-63
2020/12/05 07:22:54;;;;;;;29.75;10.73;;;4.80;99.90;;;;;;4982262;28;20038;-63
2020/12/05 07:25:21;;;;;;;33.38;12.57;;;4.90;99.90;;;;;;4977361;28;20521;-63
2020/12/05 07:27:48;;;;;;;32.80;12.30;;;5.00;99.90;;;;;;4978542;28;20045;-63
2020/12/05 07:30:15;;;;;;;31.80;10.93;;;5.00;99.90;;;;;;4963180;28;20078;-63
2020/12/05 07:32:43;;;;;;;34.25;11.00;;;5.10;99.90;;;;;;4981379;28;20050;-63
2020/12/05 07:35:15;;;;;;;31.20;12.23;;;5.10;99.90;;;;;;4964873;28;20542;-63
2020/12/05 07:37:44;;;;;;;30.45;11.88;;;5.10;99.90;;;;;;4969696;28;20125;-63
2020/12/05 07:40:12;;;;;;;35.42;13.88;;;5.10;99.90;;;;;;4984218;28;20052;-63
2020/12/05 07:42:42;;;;;;;36.47;13.40;;;5.20;99.90;;;;;;4982114;28;20498;-63
2020/12/05 07:45:14;;;;;;;36.65;13.38;;;5.20;99.90;;;;;;4980258;28;22376;-63
2020/12/05 07:47:41;;;;;;;30.60;12.30;;;5.40;99.90;;;;;;4979878;28;20525;-63
2020/12/05 07:50:10;;;;;;;34.72;12.35;;;5.50;99.90;;;;;;4968372;28;20462;-63
2020/12/05 07:52:43;;;;;;;33.47;11.32;;;5.60;99.90;;;;;;4965916;28;20089;-63
2020/12/05 07:55:12;;;;;;;26.55;10.27;;;5.70;99.90;;;;;;4957957;28;20389;-63
2020/12/05 07:57:49;;;;;;;29.20;12.02;;;5.90;99.90;;;;;;4965823;28;20531;-63
2020/12/05 08:00:19;;;;;;;33.28;11.15;;;6.00;99.90;;;;;;4965904;28;20061;-63
2020/12/05 08:02:57;;;;;;;27.95;11.23;;;6.20;99.90;;;;;;4966729;28;20050;-64
2020/12/05 08:05:57;;;;;;;33.25;12.35;;;6.30;99.90;;;;;;4970256;28;20038;-64
2020/12/05 08:08:28;;;;;;;30.20;10.65;;;6.50;99.90;;;;;;4958936;28;20042;-64
2020/12/05 08:11:01;;;;;;;28.58;10.57;;;6.70;99.90;;;;;;4964752;28;20039;-63
2020/12/05 08:13:30;;;;;;;28.20;10.15;;;6.90;99.90;;;;;;4961182;28;20134;-64
2020/12/05 08:15:56;;;;;;;30.83;11.13;;;7.00;99.90;;;;;;4982246;28;20552;-63
2020/12/05 08:18:26;;;;;;;31.95;11.65;;;7.10;99.90;;;;;;4963985;28;20039;-64
2020/12/05 08:20:53;;;;;;;37.03;12.23;;;7.30;99.90;;;;;;4965088;28;20043;-65
2020/12/05 08:23:27;;;;;;;28.70;11.40;;;7.40;99.90;;;;;;4978246;28;20043;-64
2020/12/05 08:25:57;;;;;;;28.80;10.48;;;7.60;99.90;;;;;;4972329;28;20398;-64
2020/12/05 08:28:25;;;;;;;26.88;10.75;;;7.70;99.90;;;;;;4970434;28;20057;-63
2020/12/05 08:30:54;;;;;;;23.95;10.15;;;8.00;99.90;;;;;;4985180;28;20047;-62
2020/12/05 08:33:21;;;;;;;27.52;10.40;;;8.10;99.90;;;;;;4957421;28;20043;-62
2020/12/05 08:35:48;;;;;;;26.40;9.80;;;8.30;99.90;;;;;;4956509;28;20056;-62
2020/12/05 08:38:22;;;;;;;26.70;9.63;;;8.40;99.90;;;;;;4979762;28;20058;-62
2020/12/05 08:41:02;;;;;;;22.25;9.68;;;8.70;99.90;;;;;;4942553;28;20213;-60
2020/12/05 08:43:29;;;;;;;22.63;8.80;;;8.90;99.90;;;;;;4953781;28;20058;-60
2020/12/05 08:45:55;;;;;;;21.85;8.55;;;9.10;99.90;;;;;;4957325;28;20042;-61
2020/12/05 08:48:24;;;;;;;24.48;9.60;;;9.20;99.90;;;;;;4969794;28;22022;-61
2020/12/05 08:50:50;;;;;;;25.33;9.43;;;9.40;99.90;;;;;;4964499;28;20049;-60
2020/12/05 08:53:21;;;;;;;21.65;9.15;;;9.50;99.90;;;;;;4965793;28;20094;-60
2020/12/05 08:55:49;;;;;;;23.08;9.43;;;9.60;99.90;;;;;;4967415;28;20518;-61
2020/12/05 08:58:16;;;;;;;23.17;9.18;;;9.80;99.90;;;;;;4971689;28;20059;-61
2020/12/05 09:00:50;;;;;;;22.02;8.82;;;10.00;99.90;;;;;;4959085;28;20063;-61
2020/12/05 09:03:22;;;;;;;18.52;7.32;;;10.10;99.90;;;;;;4982133;28;20043;-61
2020/12/05 09:05:50;;;;;;;18.27;8.05;;;10.20;99.90;;;;;;4978036;28;20066;-60
2020/12/05 09:08:22;;;;;;;16.38;7.22;;;10.40;99.90;;;;;;4964012;28;20035;-60
2020/12/05 09:10:50;;;;;;;20.08;8.55;;;10.50;99.90;;;;;;4970122;28;20058;-60
2020/12/05 09:13:17;;;;;;;22.13;7.65;;;10.60;99.90;;;;;;4967311;28;20423;-60
2020/12/05 09:16:02;;;;;;;19.85;7.55;;;10.90;99.90;;;;;;4968786;28;20039;-60
2020/12/05 09:18:43;;;;;;;18.05;6.93;;;10.90;99.90;;;;;;4962395;28;20051;-60
2020/12/05 09:21:11;;;;;;;21.95;7.10;;;11.10;99.90;;;;;;4975788;28;20058;-60
2020/12/05 09:23:38;;;;;;;19.00;8.40;;;11.30;99.90;;;;;;4961775;28;20047;-60
2020/12/05 09:26:06;;;;;;;19.63;8.07;;;11.30;99.70;;;;;;4967596;28;20386;-60
2020/12/05 09:28:34;;;;;;;19.98;8.77;;;11.30;99.70;;;;;;4964322;28;20051;-60
2020/12/05 09:31:06;;;;;;;17.33;7.60;;;11.50;99.30;;;;;;4958623;28;20049;-60
2020/12/05 09:33:33;;;;;;;16.83;7.32;;;11.60;98.30;;;;;;4966337;28;20054;-61
2020/12/05 09:36:00;;;;;;;19.55;7.50;;;11.70;98.20;;;;;;4966872;28;20043;-60
2020/12/05 09:38:27;;;;;;;18.67;8.32;;;11.90;97.80;;;;;;4973186;28;20718;-60
2020/12/05 09:40:53;;;;;;;20.15;8.15;;;12.00;97.40;;;;;;4962253;28;20051;-61
2020/12/05 09:43:20;;;;;;;19.50;7.20;;;12.20;96.20;;;;;;4964954;28;20059;-60
2020/12/05 09:45:47;;;;;;;18.70;7.65;;;12.20;95.60;;;;;;4958484;28;20146;-60
2020/12/05 09:48:14;;;;;;;16.80;7.53;;;12.20;95.30;;;;;;4969374;28;20082;-60
2020/12/05 09:50:41;;;;;;;18.65;7.78;;;12.40;95.00;;;;;;4969820;28;20148;-60
2020/12/05 09:53:07;;;;;;;17.65;7.95;;;12.40;94.40;;;;;;4969360;28;20415;-60
2020/12/05 09:55:34;;;;;;;17.13;8.30;;;12.50;94.50;;;;;;4970558;28;20561;-62
2020/12/05 09:58:01;;;;;;;23.30;9.38;;;12.60;93.70;;;;;;4975804;28;20055;-60
2020/12/05 10:00:28;;;;;;;17.25;8.20;;;12.70;93.70;;;;;;4973744;28;20043;-60
2020/12/05 10:02:55;;;;;;;18.08;8.43;;;12.90;93.00;;;;;;4980104;28;20212;-62
2020/12/05 10:05:22;;;;;;;18.90;7.15;;;13.00;92.80;;;;;;4959544;28;20082;-64
2020/12/05 10:07:49;;;;;;;18.40;7.95;;;13.10;92.40;;;;;;4967535;28;20043;-63
2020/12/05 10:10:16;;;;;;;18.83;8.18;;;13.30;92.10;;;;;;4956195;28;20088;-64
2020/12/05 10:12:46;;;;;;;19.13;8.40;;;13.60;91.00;;;;;;4981404;28;20449;-63
2020/12/05 10:15:14;;;;;;;15.88;7.05;;;13.50;90.00;;;;;;4965247;28;20399;-64
2020/12/05 10:17:42;;;;;;;18.15;7.43;;;13.50;90.00;;;;;;4955113;28;20055;-63
2020/12/05 10:20:10;;;;;;;17.08;7.57;;;13.70;90.00;;;;;;4978586;28;20031;-63
2020/12/05 10:22:37;;;;;;;18.17;7.50;;;13.80;89.20;;;;;;5004278;28;20540;-63
2020/12/05 10:25:05;;;;;;;19.38;7.97;;;14.00;88.30;;;;;;4976241;28;20070;-63
2020/12/05 10:27:31;;;;;;;20.95;8.63;;;14.10;87.50;;;;;;4965816;28;20047;-63
2020/12/05 10:29:58;;;;;;;17.58;7.70;;;14.30;85.30;;;;;;4974282;28;20038;-63
2020/12/05 10:32:25;;;;;;;17.42;7.82;;;14.30;84.70;;;;;;4974169;28;20117;-63
2020/12/05 10:34:52;;;;;;;18.60;8.13;;;14.00;86.10;;;;;;4963851;28;20051;-63
2020/12/05 10:37:18;;;;;;;17.58;8.70;;;14.10;86.60;;;;;;4968422;28;20050;-63
2020/12/05 10:39:45;;;;;;;17.13;8.15;;;14.20;86.10;;;;;;4969695;28;20058;-63
2020/12/05 10:42:11;;;;;;;20.45;9.40;;;14.40;85.80;;;;;;4964995;28;20066;-63
2020/12/05 10:44:38;;;;;;;14.80;7.28;;;14.60;84.70;;;;;;4952868;28;20714;-63
2020/12/05 10:47:05;;;;;;;17.23;7.75;;;14.80;83.30;;;;;;4970051;28;20055;-63
2020/12/05 10:49:31;;;;;;;14.52;7.72;;;14.90;83.00;;;;;;4962312;28;20055;-63
2020/12/05 10:51:58;;;;;;;17.77;8.13;;;15.00;82.40;;;;;;4983103;28;20121;-63
2020/12/05 10:54:25;;;;;;;17.38;8.50;;;14.90;82.30;;;;;;4963917;28;20058;-63
2020/12/05 10:56:52;;;;;;;17.98;8.85;;;14.90;83.20;;;;;;4977236;28;20061;-63
2020/12/05 10:59:18;;;;;;;18.05;8.32;;;15.00;82.50;;;;;;4967662;28;20063;-63
2020/12/05 11:01:47;;;;;;;14.65;7.30;;;15.40;81.40;;;;;;4969122;28;20471;-63
2020/12/05 11:04:14;;;;;;;16.95;8.45;;;15.70;80.00;;;;;;4969201;28;20046;-64
2020/12/05 11:06:40;;;;;;;17.88;8.80;;;15.80;78.70;;;;;;4972030;28;20046;-64
2020/12/05 11:09:07;;;;;;;17.50;9.38;;;15.80;77.90;;;;;;4967419;28;20626;-63
2020/12/05 11:11:33;;;;;;;17.63;7.88;;;15.90;77.90;;;;;;4955862;28;20047;-63
2020/12/05 11:14:00;;;;;;;18.90;8.45;;;16.10;77.10;;;;;;4968262;28;20035;-64
2020/12/05 11:16:26;;;;;;;15.63;7.43;;;16.00;76.40;;;;;;4968614;28;20039;-63
2020/12/05 11:18:54;;;;;;;17.05;7.50;;;15.70;77.60;;;;;;4996829;28;20137;-63
2020/12/05 11:21:21;;;;;;;14.27;7.15;;;15.70;78.20;;;;;;4976096;28;20046;-63
2020/12/05 11:23:48;;;;;;;15.50;7.65;;;15.70;78.00;;;;;;4963678;28;20058;-63
2020/12/05 11:26:22;;;;;;;15.30;7.63;;;15.70;78.10;;;;;;4966507;28;20054;-64
2020/12/05 11:28:50;;;;;;;18.77;8.18;;;15.80;77.10;;;;;;4980868;28;20047;-65
2020/12/05 11:31:17;;;;;;;17.88;8.68;;;16.00;76.80;;;;;;4977083;28;20042;-64
2020/12/05 11:33:44;;;;;;;21.15;8.43;;;16.20;76.30;;;;;;4967672;28;20051;-64
2020/12/05 11:36:11;;;;;;;17.48;8.27;;;16.50;75.30;;;;;;4999921;28;20556;-65
2020/12/05 11:38:38;;;;;;;15.50;7.65;;;16.60;75.00;;;;;;4966150;28;20050;-64
2020/12/05 11:41:04;;;;;;;12.43;5.78;;;16.80;74.00;;;;;;4973351;28;20036;-64
2020/12/05 11:43:31;;;;;;;13.45;5.97;;;16.80;73.00;;;;;;4960903;28;20409;-63
2020/12/05 11:45:58;;;;;;;12.45;5.97;;;16.90;73.50;;;;;;4959816;28;20043;-64
2020/12/05 11:48:25;;;;;;;14.32;6.70;;;17.20;72.30;;;;;;4957666;28;20573;-63
2020/12/05 11:50:52;;;;;;;11.10;5.35;;;17.20;72.00;;;;;;4978753;28;21990;-63
2020/12/05 11:53:18;;;;;;;9.38;4.30;;;17.40;69.90;;;;;;4958080;28;20043;-63
2020/12/05 11:55:45;;;;;;;9.57;4.05;;;17.40;68.90;;;;;;4960788;28;20130;-63
2020/12/05 11:58:12;;;;;;;6.43;3.33;;;17.60;67.80;;;;;;4968488;28;20050;-63
2020/12/05 12:00:38;;;;;;;10.27;4.00;;;17.50;67.70;;;;;;5000173;28;20393;-63
2020/12/05 12:03:12;;;;;;;6.15;3.47;;;17.50;67.90;;;;;;4970301;28;20422;-63
2020/12/05 12:05:38;;;;;;;7.35;3.80;;;17.50;66.90;;;;;;4979863;28;20494;-64
2020/12/05 12:08:05;;;;;;;7.28;3.28;;;17.30;67.30;;;;;;4969968;28;20058;-64
2020/12/05 12:10:32;;;;;;;9.05;4.20;;;17.20;67.20;;;;;;4984894;28;20046;-64
2020/12/05 12:13:00;;;;;;;8.77;4.13;;;16.80;69.30;;;;;;4976694;28;20041;-64
2020/12/05 12:15:27;;;;;;;7.38;3.47;;;16.50;70.00;;;;;;4980924;28;20077;-63
2020/12/05 12:17:54;;;;;;;8.25;4.47;;;16.50;69.40;;;;;;4977955;28;20166;-63
2020/12/05 12:20:21;;;;;;;7.07;3.95;;;16.50;69.10;;;;;;4960632;28;20695;-63
2020/12/05 12:22:48;;;;;;;7.32;3.75;;;16.50;69.50;;;;;;4975000;28;20047;-63
2020/12/05 12:25:15;;;;;;;7.47;3.40;;;16.20;70.10;;;;;;4971663;28;20661;-63
2020/12/05 12:27:42;;;;;;;8.38;4.13;;;16.00;71.20;;;;;;4982389;28;20042;-63
2020/12/05 12:30:09;;;;;;;9.32;4.43;;;15.80;71.30;;;;;;4980227;28;20489;-63
2020/12/05 12:32:36;;;;;;;8.20;4.03;;;15.60;72.10;;;;;;4980214;28;20153;-63
2020/12/05 12:35:03;;;;;;;8.23;3.83;;;15.50;72.80;;;;;;4969866;28;20050;-63
2020/12/05 12:37:30;;;;;;;7.57;4.38;;;15.40;73.30;;;;;;4977608;28;20038;-63
2020/12/05 12:39:57;;;;;;;11.77;5.60;;;15.30;74.20;;;;;;4954054;28;20380;-63
2020/12/05 12:42:26;;;;;;;9.43;3.72;;;15.10;74.40;;;;;;4981509;28;20141;-63
2020/12/05 12:44:53;;;;;;;9.20;4.53;;;15.10;75.30;;;;;;4967701;28;20047;-63
2020/12/05 12:50:04;;;;;;;8.65;4.10;;;14.80;77.50;;;;;;4984847;28;20042;-63